Time;durP1;ratioP1;P1;durP2;ratioP2;P2;SDS_P1;SDS_P2;PMS_P1;PMS_P2;Temp;Humidity;BMP_temperature;BMP_pressure;BME280_temperature;BME280_humidity;BME280_pressure;Samples;Min_cycle;Max_cycle;Signal;HPM_P1;HPM_P2
2022/01/27 00:00:38;;;;;;;4.53;2.47;;;;;;;;;;4972460;28;20204;-73
2022/01/27 00:03:29;;;;;;;2.93;2.30;;;;;;;;;;4965278;28;20207;-72
2022/01/27 00:06:17;;;;;;;4.20;2.93;;;;;;;;;;5032701;28;20248;-72
2022/01/27 00:09:12;;;;;;;4.50;2.50;;;;;;;;;;5029010;28;20238;-72
2022/01/27 00:12:02;;;;;;;3.20;2.07;;;;;;;;;;5028269;28;20213;-72
2022/01/27 00:14:57;;;;;;;3.33;2.50;;;;;;;;;;5028620;28;20217;-73
2022/01/27 00:17:47;;;;;;;2.70;2.07;;;;;;;;;;5028220;28;20214;-73
2022/01/27 00:20:35;;;;;;;2.50;2.13;;;;;;;;;;5029590;28;20204;-75
2022/01/27 00:23:22;;;;;;;4.00;2.30;;;;;;;;;;5030162;28;20208;-73
2022/01/27 00:26:11;;;;;;;3.40;2.23;;;;;;;;;;5030359;28;20342;-73
2022/01/27 00:28:58;;;;;;;2.77;2.17;;;;;;;;;;5030773;28;20266;-73
2022/01/27 00:31:45;;;;;;;3.40;2.13;;;;;;;;;;5028553;28;20373;-72
2022/01/27 00:34:32;;;;;;;3.73;2.30;;;;;;;;;;5029814;28;20620;-73
2022/01/27 00:37:20;;;;;;;3.93;2.53;;;;;;;;;;5029466;28;20207;-73
2022/01/27 00:40:11;;;;;;;3.23;1.83;;;;;;;;;;5032516;28;20273;-73
2022/01/27 00:42:59;;;;;;;2.50;1.60;;;;;;;;;;5029784;28;20585;-73
2022/01/27 00:45:46;;;;;;;1.90;1.57;;;;;;;;;;5027689;28;20285;-73
2022/01/27 00:48:33;;;;;;;3.07;2.20;;;;;;;;;;5029169;28;20340;-73
2022/01/27 00:51:23;;;;;;;3.13;2.13;;;;;;;;;;5029789;28;20627;-73
2022/01/27 00:54:17;;;;;;;2.40;1.87;;;;;;;;;;5031007;28;20686;-73
2022/01/27 00:57:10;;;;;;;3.10;2.10;;;;;;;;;;5028209;28;20583;-73
2022/01/27 01:00:00;;;;;;;2.50;2.00;;;;;;;;;;5028959;28;20216;-73
2022/01/27 01:02:52;;;;;;;2.70;1.83;;;;;;;;;;5029636;28;20212;-73
2022/01/27 01:05:59;;;;;;;2.10;1.80;;;;;;;;;;5030491;28;20205;-73
2022/01/27 01:12:53;;;;;;;3.50;2.23;;;;;;;;;;5131341;27;20293;-68
2022/01/27 01:15:17;;;;;;;2.83;1.80;;;;;;;;;;5116436;28;20202;-68
2022/01/27 01:18:19;;;;;;;1.60;1.40;;;;;;;;;;5110623;27;20298;-68
2022/01/27 01:30:46;;;;;;;1.50;1.13;;;;;;;;;;5108040;28;20231;-70
2022/01/27 01:33:37;;;;;;;1.77;1.60;;;;;;;;;;5118620;27;20206;-68
2022/01/27 01:36:35;;;;;;;1.33;1.20;;;;;;;;;;5095666;28;20296;-69
2022/01/27 01:39:23;;;;;;;1.37;1.23;;;;;;;;;;5102781;28;20211;-69
2022/01/27 01:42:12;;;;;;;1.47;1.27;;;;;;;;;;5100262;28;20281;-69
2022/01/27 01:45:04;;;;;;;1.80;1.40;;;;;;;;;;5099431;28;20327;-69
2022/01/27 01:47:51;;;;;;;1.00;0.90;;;;;;;;;;5102198;28;20697;-68
2022/01/27 01:50:39;;;;;;;1.77;1.27;;;;;;;;;;5095237;28;20226;-67
2022/01/27 01:53:26;;;;;;;1.33;1.23;;;;;;;;;;5103588;28;20319;-69
2022/01/27 01:56:13;;;;;;;1.57;1.27;;;;;;;;;;5096654;28;20666;-67
2022/01/27 01:59:00;;;;;;;1.00;0.90;;;;;;;;;;5098622;28;20742;-67
2022/01/27 02:01:48;;;;;;;0.70;0.70;;;;;;;;;;5098705;28;20726;-69
2022/01/27 02:04:35;;;;;;;1.43;0.90;;;;;;;;;;5095491;28;20260;-68
2022/01/27 02:07:31;;;;;;;1.07;1.00;;;;;;;;;;5105076;28;20677;-68
2022/01/27 02:10:32;;;;;;;1.07;0.80;;;;;;;;;;5093315;28;20225;-67
2022/01/27 02:19:32;;;;;;;1.60;1.10;;;;;;;;;;5092735;28;20277;-68
2022/01/27 02:22:21;;;;;;;0.93;0.80;;;;;;;;;;5087394;28;20232;-67
2022/01/27 02:25:09;;;;;;;0.80;0.80;;;;;;;;;;5078650;28;20562;-67
2022/01/27 02:27:58;;;;;;;0.83;0.80;;;;;;;;;;5085143;28;20336;-68
2022/01/27 02:30:46;;;;;;;0.80;0.80;;;;;;;;;;5083077;28;20233;-68
2022/01/27 02:33:33;;;;;;;0.80;0.80;;;;;;;;;;5081174;28;20208;-67
2022/01/27 02:36:20;;;;;;;1.17;0.90;;;;;;;;;;5086758;28;20284;-68
2022/01/27 02:39:11;;;;;;;0.80;0.60;;;;;;;;;;5080709;28;20337;-67
2022/01/27 02:42:03;;;;;;;0.70;0.70;;;;;;;;;;5090826;28;20198;-66
2022/01/27 02:45:01;;;;;;;0.80;0.80;;;;;;;;;;5079576;28;20230;-68
2022/01/27 02:47:48;;;;;;;0.87;0.80;;;;;;;;;;5079886;28;20287;-67
2022/01/27 02:50:35;;;;;;;0.63;0.53;;;;;;;;;;5087919;28;20697;-69
2022/01/27 02:53:22;;;;;;;2.00;0.70;;;;;;;;;;5078573;28;20242;-67
2022/01/27 02:56:10;;;;;;;0.57;0.53;;;;;;;;;;5087785;28;20271;-68
2022/01/27 02:58:57;;;;;;;0.60;0.60;;;;;;;;;;5083940;28;20244;-68
2022/01/27 03:01:44;;;;;;;0.50;0.50;;;;;;;;;;5085258;28;20203;-69
2022/01/27 03:04:33;;;;;;;0.93;0.80;;;;;;;;;;5084875;28;20278;-68
2022/01/27 03:07:20;;;;;;;0.67;0.60;;;;;;;;;;5082639;28;20259;-68
2022/01/27 03:10:08;;;;;;;0.60;0.60;;;;;;;;;;5085486;28;20288;-67
2022/01/27 03:13:00;;;;;;;0.73;0.73;;;;;;;;;;5079692;28;20686;-68
2022/01/27 03:15:47;;;;;;;0.50;0.50;;;;;;;;;;5089008;28;20227;-68
2022/01/27 03:18:33;;;;;;;0.33;0.33;;;;;;;;;;5081924;28;20233;-69
2022/01/27 03:21:20;;;;;;;1.13;0.57;;;;;;;;;;5082031;28;20229;-67
2022/01/27 03:24:08;;;;;;;0.40;0.40;;;;;;;;;;5080138;28;20203;-69
2022/01/27 03:26:55;;;;;;;0.43;0.43;;;;;;;;;;5079618;28;20225;-68
2022/01/27 03:29:44;;;;;;;0.30;0.30;;;;;;;;;;5089569;28;20195;-68
2022/01/27 03:32:31;;;;;;;0.50;0.50;;;;;;;;;;5082365;28;20211;-69
2022/01/27 03:35:18;;;;;;;0.40;0.40;;;;;;;;;;5087251;28;20232;-69
2022/01/27 03:38:05;;;;;;;0.30;0.30;;;;;;;;;;5080479;28;20211;-69
2022/01/27 03:40:52;;;;;;;0.60;0.60;;;;;;;;;;5083239;28;20282;-69
2022/01/27 03:43:40;;;;;;;0.40;0.40;;;;;;;;;;5087480;28;20264;-68
2022/01/27 03:46:29;;;;;;;0.30;0.23;;;;;;;;;;5077431;28;20234;-70
2022/01/27 03:49:16;;;;;;;0.40;0.40;;;;;;;;;;5089119;28;20286;-68
2022/01/27 03:52:03;;;;;;;0.30;0.30;;;;;;;;;;5079744;28;20226;-69
2022/01/27 03:54:50;;;;;;;0.40;0.20;;;;;;;;;;5085776;28;20301;-68
2022/01/27 03:57:37;;;;;;;0.30;0.30;;;;;;;;;;5081984;28;20310;-68
2022/01/27 04:00:24;;;;;;;0.40;0.40;;;;;;;;;;5082163;28;20252;-68
2022/01/27 04:03:15;;;;;;;0.40;0.40;;;;;;;;;;5088257;28;20264;-68
2022/01/27 04:06:06;;;;;;;0.50;0.50;;;;;;;;;;5077669;28;20220;-67
2022/01/27 04:08:53;;;;;;;0.30;0.30;;;;;;;;;;5082003;28;20204;-68
2022/01/27 04:11:41;;;;;;;0.30;0.30;;;;;;;;;;5079465;28;20242;-67
2022/01/27 04:14:28;;;;;;;0.73;0.30;;;;;;;;;;5085886;28;20232;-68
2022/01/27 04:17:15;;;;;;;0.43;0.43;;;;;;;;;;5083719;28;20210;-69
2022/01/27 04:20:04;;;;;;;0.40;0.40;;;;;;;;;;5079040;28;20303;-69
2022/01/27 04:22:51;;;;;;;0.40;0.40;;;;;;;;;;5082098;28;20668;-69
2022/01/27 04:25:39;;;;;;;0.40;0.40;;;;;;;;;;5074897;28;20244;-69
2022/01/27 04:28:29;;;;;;;0.47;0.47;;;;;;;;;;5082242;28;20569;-68
2022/01/27 04:31:16;;;;;;;0.53;0.53;;;;;;;;;;5080708;28;20773;-71
2022/01/27 04:34:03;;;;;;;0.30;0.30;;;;;;;;;;5081926;28;20208;-69
2022/01/27 04:36:54;;;;;;;0.30;0.30;;;;;;;;;;5085550;28;20243;-68
2022/01/27 04:39:51;;;;;;;0.43;0.43;;;;;;;;;;5076994;28;20687;-69
2022/01/27 04:42:49;;;;;;;0.40;0.40;;;;;;;;;;5086240;28;20287;-69
2022/01/27 04:45:44;;;;;;;0.30;0.30;;;;;;;;;;5080185;28;20219;-69
2022/01/27 04:48:36;;;;;;;0.40;0.40;;;;;;;;;;5082709;28;20216;-69
2022/01/27 04:51:24;;;;;;;0.33;0.33;;;;;;;;;;5084758;28;20230;-70
2022/01/27 04:54:17;;;;;;;0.40;0.40;;;;;;;;;;5079175;28;20249;-68
2022/01/27 04:57:06;;;;;;;0.70;0.40;;;;;;;;;;5088007;28;20570;-70
2022/01/27 04:59:53;;;;;;;0.50;0.50;;;;;;;;;;5078284;28;20199;-68
2022/01/27 05:02:45;;;;;;;0.20;0.20;;;;;;;;;;5082358;28;20240;-69
2022/01/27 05:05:37;;;;;;;0.40;0.40;;;;;;;;;;5085294;28;20215;-69
2022/01/27 05:08:24;;;;;;;0.40;0.40;;;;;;;;;;5076384;28;20670;-69
2022/01/27 05:11:17;;;;;;;0.43;0.33;;;;;;;;;;5087827;28;20372;-69
2022/01/27 05:14:10;;;;;;;0.40;0.30;;;;;;;;;;5076738;28;20207;-69
2022/01/27 05:16:57;;;;;;;0.40;0.40;;;;;;;;;;5084622;28;20203;-69
2022/01/27 05:19:47;;;;;;;0.57;0.30;;;;;;;;;;5079143;28;20276;-69
2022/01/27 05:22:34;;;;;;;0.30;0.30;;;;;;;;;;5078135;28;20247;-69
2022/01/27 05:25:21;;;;;;;0.37;0.37;;;;;;;;;;5085547;28;20202;-69
2022/01/27 05:28:10;;;;;;;0.30;0.30;;;;;;;;;;5075899;28;20685;-69
2022/01/27 05:30:57;;;;;;;0.40;0.40;;;;;;;;;;5084219;28;20274;-69
2022/01/27 05:33:44;;;;;;;0.30;0.30;;;;;;;;;;5077597;28;20227;-69
2022/01/27 05:36:31;;;;;;;0.70;0.70;;;;;;;;;;5080342;28;20323;-69
2022/01/27 05:39:18;;;;;;;0.50;0.50;;;;;;;;;;5081850;28;20233;-69
2022/01/27 05:42:05;;;;;;;0.63;0.50;;;;;;;;;;5080269;28;20252;-69
2022/01/27 05:44:54;;;;;;;0.60;0.60;;;;;;;;;;5085693;28;20570;-68
2022/01/27 05:47:40;;;;;;;0.60;0.60;;;;;;;;;;5076190;28;20247;-68
2022/01/27 05:50:27;;;;;;;0.67;0.50;;;;;;;;;;5084302;28;20218;-69
2022/01/27 05:53:14;;;;;;;0.63;0.63;;;;;;;;;;5077052;28;20204;-69
2022/01/27 05:56:01;;;;;;;0.90;0.90;;;;;;;;;;5080971;28;20208;-69
2022/01/27 05:58:48;;;;;;;0.60;0.60;;;;;;;;;;5088889;28;20272;-69
2022/01/27 06:01:36;;;;;;;1.07;1.00;;;;;;;;;;5082125;28;20211;-69
2022/01/27 06:04:23;;;;;;;1.30;1.10;;;;;;;;;;5089913;28;20307;-68
2022/01/27 06:07:11;;;;;;;0.70;0.70;;;;;;;;;;5077624;28;20266;-69
2022/01/27 06:09:58;;;;;;;1.10;1.00;;;;;;;;;;5086882;28;20239;-68
2022/01/27 06:12:46;;;;;;;1.57;1.00;;;;;;;;;;5082085;28;20231;-69
2022/01/27 06:15:34;;;;;;;0.73;0.73;;;;;;;;;;5087198;28;20293;-68
2022/01/27 06:18:22;;;;;;;1.33;1.23;;;;;;;;;;5087003;28;20684;-68
2022/01/27 06:21:12;;;;;;;0.70;0.67;;;;;;;;;;5081449;28;20666;-69
2022/01/27 06:24:00;;;;;;;1.17;1.10;;;;;;;;;;5090282;28;20339;-69
2022/01/27 06:26:47;;;;;;;2.23;1.17;;;;;;;;;;5081178;28;20282;-69
2022/01/27 06:29:34;;;;;;;1.90;1.70;;;;;;;;;;5086342;28;20302;-69
2022/01/27 06:32:21;;;;;;;1.33;1.23;;;;;;;;;;5085419;28;20694;-69
2022/01/27 06:35:10;;;;;;;1.87;1.40;;;;;;;;;;5081821;28;20769;-68
2022/01/27 06:37:56;;;;;;;1.40;1.30;;;;;;;;;;5091470;28;20340;-69
2022/01/27 06:40:44;;;;;;;1.73;1.33;;;;;;;;;;5081038;28;20624;-69
2022/01/27 06:43:31;;;;;;;1.70;1.47;;;;;;;;;;5090839;28;20682;-68
2022/01/27 06:46:18;;;;;;;1.57;1.23;;;;;;;;;;5080698;28;20218;-69
2022/01/27 06:49:05;;;;;;;1.60;1.50;;;;;;;;;;5085742;28;20290;-68
2022/01/27 06:51:53;;;;;;;2.97;1.47;;;;;;;;;;5086632;28;20286;-69
2022/01/27 06:54:40;;;;;;;2.37;1.60;;;;;;;;;;5079934;28;20231;-68
2022/01/27 06:57:28;;;;;;;1.50;1.40;;;;;;;;;;5089449;28;20591;-69
2022/01/27 07:00:16;;;;;;;3.47;1.70;;;;;;;;;;5081804;28;20239;-69
2022/01/27 07:03:02;;;;;;;2.70;1.60;;;;;;;;;;5088070;28;20199;-73
2022/01/27 07:05:49;;;;;;;1.70;1.60;;;;;;;;;;5085523;28;20678;-72
2022/01/27 07:08:38;;;;;;;2.70;1.50;;;;;;;;;;5083013;28;20303;-73
2022/01/27 07:11:24;;;;;;;2.07;1.73;;;;;;;;;;5087381;28;20239;-72
2022/01/27 07:14:12;;;;;;;1.47;1.37;;;;;;;;;;5079231;28;20245;-72
2022/01/27 07:16:59;;;;;;;1.63;1.50;;;;;;;;;;5090817;28;20282;-72
2022/01/27 07:19:46;;;;;;;2.60;1.87;;;;;;;;;;5077958;28;20207;-73
2022/01/27 07:22:33;;;;;;;2.30;1.80;;;;;;;;;;5087281;28;20211;-73
2022/01/27 07:25:21;;;;;;;3.50;2.00;;;;;;;;;;5084517;28;20211;-73
2022/01/27 07:28:08;;;;;;;2.37;2.00;;;;;;;;;;5081679;28;20287;-73
2022/01/27 07:30:55;;;;;;;2.07;1.67;;;;;;;;;;5080000;28;20290;-73
2022/01/27 07:33:42;;;;;;;3.07;1.83;;;;;;;;;;5077947;28;20290;-73
2022/01/27 07:36:31;;;;;;;2.27;1.83;;;;;;;;;;5088087;28;20575;-73
2022/01/27 07:39:18;;;;;;;4.77;2.17;;;;;;;;;;5078390;28;20649;-72
2022/01/27 07:42:06;;;;;;;2.53;1.60;;;;;;;;;;5084932;28;20273;-72
2022/01/27 07:44:53;;;;;;;3.00;1.93;;;;;;;;;;5084242;28;20317;-72
2022/01/27 07:47:40;;;;;;;2.50;2.03;;;;;;;;;;5082934;28;20293;-72
2022/01/27 07:50:30;;;;;;;3.43;2.03;;;;;;;;;;5089252;28;20213;-73
2022/01/27 07:53:16;;;;;;;3.80;2.23;;;;;;;;;;5080878;28;20659;-72
2022/01/27 07:56:04;;;;;;;3.20;2.30;;;;;;;;;;5084927;28;20332;-72
2022/01/27 07:58:52;;;;;;;3.13;2.23;;;;;;;;;;5078675;28;20203;-73
2022/01/27 08:01:39;;;;;;;2.40;2.10;;;;;;;;;;5085328;28;20240;-72
2022/01/27 08:04:26;;;;;;;2.07;1.90;;;;;;;;;;5086370;28;20300;-73
2022/01/27 08:07:14;;;;;;;2.43;2.20;;;;;;;;;;5078613;28;20228;-73
2022/01/27 08:10:01;;;;;;;2.10;1.80;;;;;;;;;;5087913;28;20732;-73
2022/01/27 08:12:48;;;;;;;2.17;1.97;;;;;;;;;;5079848;28;20264;-73
2022/01/27 08:15:36;;;;;;;2.57;2.00;;;;;;;;;;5085946;28;20245;-72
2022/01/27 08:18:23;;;;;;;2.37;2.03;;;;;;;;;;5078692;28;20205;-72
2022/01/27 08:21:10;;;;;;;2.23;1.90;;;;;;;;;;5083944;28;20210;-73
2022/01/27 08:23:59;;;;;;;3.07;2.00;;;;;;;;;;5087126;28;20289;-73
2022/01/27 08:26:47;;;;;;;3.03;2.07;;;;;;;;;;5078226;28;20214;-73
2022/01/27 08:29:38;;;;;;;2.47;2.03;;;;;;;;;;5088278;28;20355;-73
2022/01/27 08:32:39;;;;;;;3.17;2.10;;;;;;;;;;5078860;28;20245;-73
2022/01/27 08:35:26;;;;;;;2.57;2.13;;;;;;;;;;5084922;28;20301;-73
2022/01/27 08:38:14;;;;;;;3.63;2.13;;;;;;;;;;5080306;28;20226;-73
2022/01/27 08:41:01;;;;;;;4.23;2.37;;;;;;;;;;5079571;28;20211;-73
2022/01/27 08:43:48;;;;;;;2.93;2.00;;;;;;;;;;5087103;28;20761;-73
2022/01/27 08:46:36;;;;;;;2.37;2.10;;;;;;;;;;5080429;28;20220;-73
2022/01/27 08:49:26;;;;;;;2.77;2.13;;;;;;;;;;5080579;28;20211;-73
2022/01/27 08:52:13;;;;;;;2.57;2.03;;;;;;;;;;5076758;28;20235;-73
2022/01/27 08:55:00;;;;;;;2.83;2.53;;;;;;;;;;5077602;28;20218;-73
2022/01/27 08:57:47;;;;;;;2.97;2.10;;;;;;;;;;5081825;28;20260;-73
2022/01/27 09:00:35;;;;;;;3.03;2.30;;;;;;;;;;5078253;28;20633;-73
2022/01/27 09:03:21;;;;;;;4.93;2.67;;;;;;;;;;5084578;28;20755;-72
2022/01/27 09:06:10;;;;;;;3.93;2.40;;;;;;;;;;5078146;28;20334;-73
2022/01/27 09:08:59;;;;;;;3.17;2.17;;;;;;;;;;5083940;28;20836;-73
2022/01/27 09:11:46;;;;;;;2.83;2.30;;;;;;;;;;5082457;28;20215;-73
2022/01/27 09:14:33;;;;;;;3.17;2.40;;;;;;;;;;5079366;28;20243;-73
2022/01/27 09:17:25;;;;;;;3.37;2.17;;;;;;;;;;5084875;28;20277;-74
2022/01/27 09:20:13;;;;;;;2.70;2.20;;;;;;;;;;5075422;28;20578;-73
2022/01/27 09:23:06;;;;;;;4.37;2.67;;;;;;;;;;5086360;28;20233;-73
2022/01/27 09:25:57;;;;;;;3.37;2.30;;;;;;;;;;5075256;28;20674;-75
2022/01/27 09:28:44;;;;;;;3.50;2.40;;;;;;;;;;5081750;28;20207;-73
2022/01/27 09:31:30;;;;;;;3.73;2.37;;;;;;;;;;5083080;28;20271;-73
2022/01/27 09:34:19;;;;;;;3.30;1.97;;;;;;;;;;5081313;28;20300;-74
2022/01/27 09:37:06;;;;;;;3.00;2.37;;;;;;;;;;5090714;28;20267;-73
2022/01/27 09:39:54;;;;;;;2.97;2.07;;;;;;;;;;5079663;28;20210;-73
2022/01/27 09:42:42;;;;;;;4.67;2.30;;;;;;;;;;5090864;28;20698;-73
2022/01/27 09:45:30;;;;;;;2.87;2.40;;;;;;;;;;5081296;28;20195;-74
2022/01/27 09:48:19;;;;;;;3.17;2.17;;;;;;;;;;5086365;28;20199;-74
2022/01/27 09:51:26;;;;;;;2.63;2.23;;;;;;;;;;5088897;28;20269;-73
2022/01/27 09:54:14;;;;;;;2.37;1.80;;;;;;;;;;5080177;28;20211;-74
2022/01/27 09:57:04;;;;;;;3.93;2.00;;;;;;;;;;5086258;28;20210;-73
2022/01/27 09:59:51;;;;;;;4.03;2.60;;;;;;;;;;5081928;28;20282;-74
2022/01/27 10:02:39;;;;;;;6.47;2.33;;;;;;;;;;5085579;28;20331;-74
2022/01/27 10:05:26;;;;;;;2.20;2.00;;;;;;;;;;5086390;28;20227;-74
2022/01/27 10:08:16;;;;;;;3.00;2.10;;;;;;;;;;5081132;28;20683;-74
2022/01/27 10:11:14;;;;;;;3.93;2.40;;;;;;;;;;5090325;28;20231;-74
2022/01/27 10:14:25;;;;;;;3.10;2.40;;;;;;;;;;5084423;28;20698;-74
2022/01/27 10:17:13;;;;;;;4.87;2.73;;;;;;;;;;5084814;28;20203;-74
2022/01/27 10:20:02;;;;;;;4.30;2.50;;;;;;;;;;5088772;28;20553;-74
2022/01/27 10:23:10;;;;;;;4.27;2.40;;;;;;;;;;5081972;28;20207;-74
2022/01/27 10:26:08;;;;;;;3.80;2.50;;;;;;;;;;5090147;28;20204;-74
2022/01/27 10:29:02;;;;;;;3.27;2.53;;;;;;;;;;5085203;28;20237;-74
2022/01/27 10:32:01;;;;;;;4.70;2.30;;;;;;;;;;5084245;28;20214;-74
2022/01/27 10:34:54;;;;;;;4.97;2.70;;;;;;;;;;5088596;28;20258;-74
2022/01/27 10:38:01;;;;;;;4.13;2.60;;;;;;;;;;5081960;28;20194;-74
2022/01/27 10:40:48;;;;;;;6.23;2.70;;;;;;;;;;5088375;28;20298;-73
2022/01/27 10:43:35;;;;;;;5.23;2.67;;;;;;;;;;5082797;28;20745;-73
2022/01/27 10:46:26;;;;;;;6.37;3.00;;;;;;;;;;5082281;28;20282;-76
2022/01/27 10:49:23;;;;;;;3.87;2.70;;;;;;;;;;5087084;28;20207;-72
2022/01/27 10:52:11;;;;;;;4.43;2.90;;;;;;;;;;5077792;28;20238;-72
2022/01/27 10:55:05;;;;;;;3.00;2.47;;;;;;;;;;5088945;28;20218;-73
2022/01/27 10:57:51;;;;;;;4.53;2.70;;;;;;;;;;5082411;28;20358;-73
2022/01/27 11:00:38;;;;;;;3.40;2.50;;;;;;;;;;5084821;28;20219;-72
2022/01/27 11:03:26;;;;;;;5.73;2.90;;;;;;;;;;5085232;28;20291;-73
2022/01/27 11:06:14;;;;;;;5.47;2.90;;;;;;;;;;5081065;28;20379;-72
2022/01/27 11:09:07;;;;;;;4.37;2.80;;;;;;;;;;5089821;28;20211;-72
2022/01/27 11:11:55;;;;;;;4.00;2.73;;;;;;;;;;5080674;28;20560;-72
2022/01/27 11:14:43;;;;;;;7.10;3.47;;;;;;;;;;5085448;28;20292;-73
2022/01/27 11:17:35;;;;;;;6.07;3.40;;;;;;;;;;5086249;28;20207;-72
2022/01/27 11:20:29;;;;;;;6.67;3.37;;;;;;;;;;5079778;28;20214;-72
2022/01/27 11:23:48;;;;;;;5.63;3.07;;;;;;;;;;5089432;28;20334;-73
2022/01/27 11:26:33;;;;;;;5.20;3.43;;;;;;;;;;5081742;28;20217;-73
2022/01/27 11:29:21;;;;;;;5.33;3.30;;;;;;;;;;5086764;28;20297;-73
2022/01/27 11:32:22;;;;;;;5.13;3.00;;;;;;;;;;5080467;28;20796;-73
2022/01/27 11:35:19;;;;;;;5.60;3.00;;;;;;;;;;5079293;28;20301;-73
2022/01/27 11:38:08;;;;;;;3.87;2.90;;;;;;;;;;5090839;28;20198;-73
2022/01/27 11:40:56;;;;;;;4.43;2.73;;;;;;;;;;5079431;28;20209;-73
2022/01/27 11:43:43;;;;;;;5.37;3.30;;;;;;;;;;5087663;28;20212;-73
2022/01/27 11:46:33;;;;;;;5.27;3.00;;;;;;;;;;5081118;28;20196;-73
2022/01/27 11:49:53;;;;;;;6.63;3.43;;;;;;;;;;5082561;28;20233;-72
2022/01/27 11:52:49;;;;;;;5.53;3.27;;;;;;;;;;5085270;28;20226;-72
2022/01/27 11:55:44;;;;;;;6.67;3.20;;;;;;;;;;5078386;28;20261;-73
2022/01/27 11:58:44;;;;;;;5.87;3.27;;;;;;;;;;5080829;28;20223;-73
2022/01/27 12:01:34;;;;;;;4.73;3.27;;;;;;;;;;5085408;28;20203;-73
2022/01/27 12:04:26;;;;;;;5.00;2.80;;;;;;;;;;5077319;28;20215;-73
2022/01/27 12:07:13;;;;;;;5.43;3.10;;;;;;;;;;5085782;28;20239;-73
2022/01/27 12:10:00;;;;;;;5.10;3.00;;;;;;;;;;5080907;28;20255;-72
2022/01/27 12:12:47;;;;;;;5.97;3.37;;;;;;;;;;5085502;28;20304;-73
2022/01/27 12:16:23;;;;;;;5.53;3.40;;;;;;;;;;5085005;28;20211;-72
2022/01/27 12:19:12;;;;;;;4.83;2.97;;;;;;;;;;5076682;28;20203;-72
2022/01/27 12:22:04;;;;;;;6.30;3.50;;;;;;;;;;5086941;28;20307;-72
2022/01/27 12:24:53;;;;;;;5.93;3.10;;;;;;;;;;5083115;28;20199;-73
2022/01/27 12:27:41;;;;;;;6.90;3.10;;;;;;;;;;5080202;28;20694;-73
2022/01/27 12:30:28;;;;;;;5.57;3.07;;;;;;;;;;5083546;28;20226;-73
2022/01/27 12:33:20;;;;;;;6.10;3.17;;;;;;;;;;5078969;28;20232;-73
2022/01/27 12:36:06;;;;;;;5.90;2.90;;;;;;;;;;5084741;28;20234;-73
2022/01/27 12:38:53;;;;;;;5.23;3.33;;;;;;;;;;5078780;28;20289;-73
2022/01/27 12:41:41;;;;;;;5.97;3.20;;;;;;;;;;5083893;28;20282;-73
2022/01/27 12:44:29;;;;;;;5.30;3.07;;;;;;;;;;5085338;28;20199;-73
2022/01/27 12:47:16;;;;;;;4.67;3.20;;;;;;;;;;5079916;28;20210;-74
2022/01/27 12:50:09;;;;;;;5.60;3.13;;;;;;;;;;5086198;28;20210;-73
2022/01/27 12:53:03;;;;;;;7.50;3.27;;;;;;;;;;5076879;28;20224;-73
2022/01/27 12:55:51;;;;;;;6.50;3.17;;;;;;;;;;5081267;28;20212;-73
2022/01/27 12:58:38;;;;;;;7.53;3.33;;;;;;;;;;5079974;28;20289;-73
2022/01/27 13:01:25;;;;;;;6.13;2.87;;;;;;;;;;5083365;28;20204;-73
2022/01/27 13:04:12;;;;;;;5.83;3.13;;;;;;;;;;5081873;28;20281;-73
2022/01/27 13:07:01;;;;;;;6.33;3.27;;;;;;;;;;5077871;28;20310;-72
2022/01/27 13:09:54;;;;;;;4.77;2.77;;;;;;;;;;5083141;28;20234;-73
2022/01/27 13:12:47;;;;;;;7.13;3.20;;;;;;;;;;5079662;28;20591;-74
2022/01/27 13:15:34;;;;;;;4.40;2.80;;;;;;;;;;5083638;28;20203;-74
2022/01/27 13:18:29;;;;;;;4.57;2.87;;;;;;;;;;5077282;28;20280;-73
2022/01/27 13:21:20;;;;;;;5.07;2.77;;;;;;;;;;5077487;28;20243;-73
2022/01/27 13:24:13;;;;;;;5.30;2.67;;;;;;;;;;5088882;28;20210;-73
2022/01/27 13:27:05;;;;;;;5.23;2.70;;;;;;;;;;5078386;28;20618;-74
2022/01/27 13:29:52;;;;;;;5.07;2.70;;;;;;;;;;5083406;28;20676;-73
2022/01/27 13:32:40;;;;;;;5.70;2.97;;;;;;;;;;5074314;28;20208;-74
2022/01/27 13:35:27;;;;;;;5.23;2.90;;;;;;;;;;5078336;28;20231;-75
2022/01/27 13:38:24;;;;;;;6.67;2.87;;;;;;;;;;5084570;28;20248;-73
2022/01/27 13:41:23;;;;;;;5.23;2.80;;;;;;;;;;5075738;28;20219;-73
2022/01/27 13:44:11;;;;;;;4.57;2.73;;;;;;;;;;5085917;28;20296;-73
2022/01/27 13:47:04;;;;;;;6.13;3.00;;;;;;;;;;5080872;28;20203;-73
2022/01/27 13:49:51;;;;;;;4.97;2.60;;;;;;;;;;5081211;28;20560;-73
2022/01/27 13:52:42;;;;;;;4.23;2.47;;;;;;;;;;5082270;28;20207;-73
2022/01/27 13:55:29;;;;;;;5.93;3.10;;;;;;;;;;5077061;28;20288;-73
2022/01/27 13:58:25;;;;;;;4.53;2.70;;;;;;;;;;5080490;28;20297;-73
2022/01/27 14:01:15;;;;;;;4.53;2.50;;;;;;;;;;5076418;28;20211;-74
2022/01/27 14:04:01;;;;;;;5.53;2.57;;;;;;;;;;5080263;28;20707;-73
2022/01/27 14:06:53;;;;;;;5.53;3.13;;;;;;;;;;5084081;28;20210;-73
2022/01/27 14:09:42;;;;;;;4.23;2.80;;;;;;;;;;5078414;28;20232;-73
2022/01/27 14:12:45;;;;;;;5.40;2.93;;;;;;;;;;5085514;28;20207;-73
2022/01/27 14:15:35;;;;;;;4.70;2.70;;;;;;;;;;5079774;28;20689;-73
2022/01/27 14:18:25;;;;;;;6.53;3.07;;;;;;;;;;5081974;28;20247;-73
2022/01/27 14:21:12;;;;;;;5.00;2.80;;;;;;;;;;5087039;28;20698;-73
2022/01/27 14:24:09;;;;;;;5.40;2.53;;;;;;;;;;5080837;28;20378;-73
2022/01/27 14:27:01;;;;;;;5.30;2.87;;;;;;;;;;5088860;28;20208;-73
2022/01/27 14:29:48;;;;;;;5.07;2.50;;;;;;;;;;5079650;28;20209;-73
2022/01/27 14:32:36;;;;;;;4.57;2.53;;;;;;;;;;5083880;28;20245;-73
2022/01/27 14:35:23;;;;;;;3.53;2.63;;;;;;;;;;5085476;28;20279;-72
2022/01/27 14:38:10;;;;;;;4.00;2.67;;;;;;;;;;5086890;28;20245;-73
2022/01/27 14:40:57;;;;;;;3.87;2.50;;;;;;;;;;5087917;28;20199;-74
2022/01/27 14:43:45;;;;;;;3.93;2.77;;;;;;;;;;5080949;28;20202;-74
2022/01/27 14:46:40;;;;;;;3.10;2.30;;;;;;;;;;5090060;28;20284;-72
2022/01/27 14:49:28;;;;;;;4.47;2.60;;;;;;;;;;5080156;28;20215;-72
2022/01/27 14:52:15;;;;;;;3.23;2.70;;;;;;;;;;5083776;28;20196;-73
2022/01/27 14:55:02;;;;;;;4.77;2.63;;;;;;;;;;5086113;28;20271;-73
2022/01/27 14:57:49;;;;;;;4.33;2.90;;;;;;;;;;5082656;28;20292;-73
2022/01/27 15:00:36;;;;;;;4.97;2.80;;;;;;;;;;5087522;28;20291;-73
2022/01/27 15:03:23;;;;;;;5.60;2.70;;;;;;;;;;5080482;28;20352;-73
2022/01/27 15:06:11;;;;;;;4.20;2.70;;;;;;;;;;5089751;28;20291;-72
2022/01/27 15:08:58;;;;;;;3.03;2.60;;;;;;;;;;5083396;28;20233;-72
2022/01/27 15:11:46;;;;;;;2.57;2.37;;;;;;;;;;5087896;28;20784;-72
2022/01/27 15:20:44;;;;;;;4.53;3.10;;;;;;;;;;5070970;28;20207;-73
2022/01/27 15:23:35;;;;;;;3.63;2.57;;;;;;;;;;5080698;28;20225;-73
2022/01/27 15:26:23;;;;;;;2.93;2.40;;;;;;;;;;5084049;28;20204;-73
2022/01/27 15:29:10;;;;;;;3.90;2.53;;;;;;;;;;5083837;28;20678;-74
2022/01/27 15:32:00;;;;;;;2.70;2.17;;;;;;;;;;5077629;28;20215;-73
2022/01/27 15:34:48;;;;;;;2.97;2.13;;;;;;;;;;5088566;28;20717;-74
2022/01/27 15:37:35;;;;;;;4.43;2.50;;;;;;;;;;5080741;28;20208;-74
2022/01/27 15:40:24;;;;;;;4.60;2.57;;;;;;;;;;5087017;28;20697;-74
2022/01/27 15:43:11;;;;;;;3.33;2.60;;;;;;;;;;5080481;28;20559;-73
2022/01/27 15:45:59;;;;;;;4.97;2.73;;;;;;;;;;5084033;28;20278;-72
2022/01/27 15:48:46;;;;;;;3.43;2.57;;;;;;;;;;5085376;28;20205;-73
2022/01/27 15:51:33;;;;;;;4.53;2.30;;;;;;;;;;5080148;28;20288;-72
2022/01/27 15:54:21;;;;;;;5.37;2.70;;;;;;;;;;5085132;28;20276;-72
2022/01/27 15:57:09;;;;;;;3.00;2.27;;;;;;;;;;5080656;28;20205;-72
2022/01/27 15:59:56;;;;;;;4.80;2.40;;;;;;;;;;5083304;28;20792;-72
2022/01/27 16:02:45;;;;;;;2.70;2.40;;;;;;;;;;5083251;28;20242;-72
2022/01/27 16:05:33;;;;;;;3.17;2.40;;;;;;;;;;5080144;28;20214;-72
2022/01/27 16:08:19;;;;;;;2.90;2.47;;;;;;;;;;5087513;28;20336;-72
2022/01/27 16:11:06;;;;;;;2.40;2.00;;;;;;;;;;5079375;28;20725;-72
2022/01/27 16:13:55;;;;;;;4.10;2.60;;;;;;;;;;5085544;28;20197;-72
2022/01/27 16:16:41;;;;;;;2.63;2.37;;;;;;;;;;5078715;28;20238;-72
2022/01/27 16:19:28;;;;;;;3.70;2.50;;;;;;;;;;5081605;28;20306;-72
2022/01/27 16:22:16;;;;;;;3.13;2.00;;;;;;;;;;5082755;28;20209;-72
2022/01/27 16:25:03;;;;;;;2.87;2.30;;;;;;;;;;5079455;28;20206;-72
2022/01/27 16:27:50;;;;;;;2.67;2.00;;;;;;;;;;5087621;28;20289;-72
2022/01/27 16:30:39;;;;;;;2.73;1.83;;;;;;;;;;5075815;28;20238;-72
2022/01/27 16:33:27;;;;;;;3.03;2.13;;;;;;;;;;5083144;28;20761;-73
2022/01/27 16:36:14;;;;;;;3.27;1.90;;;;;;;;;;5078961;28;20223;-73
2022/01/27 16:39:01;;;;;;;2.93;1.67;;;;;;;;;;5079299;28;20219;-70
2022/01/27 16:41:48;;;;;;;1.90;1.80;;;;;;;;;;5079107;28;20203;-69
2022/01/27 16:44:35;;;;;;;2.03;1.80;;;;;;;;;;5077672;28;20261;-69
2022/01/27 16:47:23;;;;;;;3.43;2.17;;;;;;;;;;5079249;28;20743;-69
2022/01/27 16:50:14;;;;;;;2.00;1.77;;;;;;;;;;5078149;28;20694;-69
2022/01/27 16:53:01;;;;;;;2.13;1.70;;;;;;;;;;5081532;28;20757;-69
2022/01/27 16:55:48;;;;;;;2.10;1.60;;;;;;;;;;5079336;28;20297;-69
2022/01/27 16:58:35;;;;;;;3.00;2.10;;;;;;;;;;5082198;28;20280;-69
2022/01/27 17:01:23;;;;;;;2.47;1.70;;;;;;;;;;5080966;28;20244;-69
2022/01/27 17:04:11;;;;;;;1.60;1.50;;;;;;;;;;5075203;28;20646;-69
2022/01/27 17:06:58;;;;;;;1.70;1.60;;;;;;;;;;5076885;28;20650;-69
2022/01/27 17:09:45;;;;;;;1.17;1.10;;;;;;;;;;5079522;28;20643;-69
2022/01/27 17:12:32;;;;;;;1.83;1.43;;;;;;;;;;5078594;28;20236;-69
2022/01/27 17:15:19;;;;;;;3.07;1.60;;;;;;;;;;5082524;28;20291;-69
2022/01/27 17:18:07;;;;;;;1.77;1.47;;;;;;;;;;5078576;28;20242;-70
2022/01/27 17:20:55;;;;;;;1.50;1.40;;;;;;;;;;5081543;28;20210;-69